sensor_id;sensor_type;location;lat;lon;timestamp;P1;durP1;ratioP1;P2;durP2;ratioP2
77359;SDS011;66426;51.454;7.266;2023-04-29T00:00:54;20.58;;;10.20;;
77359;SDS011;66426;51.454;7.266;2023-04-29T00:01:55;18.70;;;9.75;;
77359;SDS011;66426;51.454;7.266;2023-04-29T00:02:58;19.35;;;10.02;;
77359;SDS011;66426;51.454;7.266;2023-04-29T00:04:00;18.40;;;9.63;;
77359;SDS011;66426;51.454;7.266;2023-04-29T00:05:02;21.02;;;10.43;;
77359;SDS011;66426;51.454;7.266;2023-04-29T00:06:04;19.98;;;10.10;;
77359;SDS011;66426;51.454;7.266;2023-04-29T00:07:05;21.48;;;10.85;;
77359;SDS011;66426;51.454;7.266;2023-04-29T00:08:07;20.13;;;10.10;;
77359;SDS011;66426;51.454;7.266;2023-04-29T00:09:08;18.02;;;10.35;;
77359;SDS011;66426;51.454;7.266;2023-04-29T00:10:10;19.08;;;10.18;;
77359;SDS011;66426;51.454;7.266;2023-04-29T00:11:14;20.33;;;10.27;;
77359;SDS011;66426;51.454;7.266;2023-04-29T00:12:15;17.85;;;9.48;;
77359;SDS011;66426;51.454;7.266;2023-04-29T00:13:16;19.52;;;10.18;;
77359;SDS011;66426;51.454;7.266;2023-04-29T00:14:18;22.30;;;10.95;;
77359;SDS011;66426;51.454;7.266;2023-04-29T00:15:19;20.50;;;10.20;;
77359;SDS011;66426;51.454;7.266;2023-04-29T00:16:20;23.17;;;10.85;;
77359;SDS011;66426;51.454;7.266;2023-04-29T00:17:22;22.73;;;11.23;;
77359;SDS011;66426;51.454;7.266;2023-04-29T00:18:23;23.30;;;11.23;;
77359;SDS011;66426;51.454;7.266;2023-04-29T00:19:24;20.40;;;10.65;;
77359;SDS011;66426;51.454;7.266;2023-04-29T00:20:25;22.60;;;12.05;;
77359;SDS011;66426;51.454;7.266;2023-04-29T00:21:25;20.20;;;10.95;;
77359;SDS011;66426;51.454;7.266;2023-04-29T00:22:27;23.67;;;11.75;;
77359;SDS011;66426;51.454;7.266;2023-04-29T00:23:28;21.23;;;11.77;;
77359;SDS011;66426;51.454;7.266;2023-04-29T00:24:28;22.80;;;11.20;;
77359;SDS011;66426;51.454;7.266;2023-04-29T00:25:29;21.90;;;11.05;;
77359;SDS011;66426;51.454;7.266;2023-04-29T00:26:30;20.42;;;10.57;;
77359;SDS011;66426;51.454;7.266;2023-04-29T00:27:31;23.83;;;10.75;;
77359;SDS011;66426;51.454;7.266;2023-04-29T00:28:32;24.17;;;10.13;;
77359;SDS011;66426;51.454;7.266;2023-04-29T00:29:34;24.35;;;11.25;;
77359;SDS011;66426;51.454;7.266;2023-04-29T00:30:36;25.23;;;11.35;;
77359;SDS011;66426;51.454;7.266;2023-04-29T00:31:37;22.35;;;11.13;;
77359;SDS011;66426;51.454;7.266;2023-04-29T00:32:38;26.27;;;11.70;;
77359;SDS011;66426;51.454;7.266;2023-04-29T00:33:39;21.42;;;11.00;;
77359;SDS011;66426;51.454;7.266;2023-04-29T00:34:40;22.30;;;10.98;;
77359;SDS011;66426;51.454;7.266;2023-04-29T00:35:42;24.88;;;11.82;;
77359;SDS011;66426;51.454;7.266;2023-04-29T00:36:43;22.27;;;11.13;;
77359;SDS011;66426;51.454;7.266;2023-04-29T00:37:43;23.10;;;10.88;;
77359;SDS011;66426;51.454;7.266;2023-04-29T00:38:44;22.73;;;11.15;;
77359;SDS011;66426;51.454;7.266;2023-04-29T00:39:45;19.63;;;10.23;;
77359;SDS011;66426;51.454;7.266;2023-04-29T00:40:46;23.13;;;11.23;;
77359;SDS011;66426;51.454;7.266;2023-04-29T00:41:47;28.08;;;11.68;;
77359;SDS011;66426;51.454;7.266;2023-04-29T00:42:48;20.05;;;10.93;;
77359;SDS011;66426;51.454;7.266;2023-04-29T00:43:49;21.30;;;10.93;;
77359;SDS011;66426;51.454;7.266;2023-04-29T00:44:51;25.17;;;11.48;;
77359;SDS011;66426;51.454;7.266;2023-04-29T00:45:52;21.45;;;10.75;;
77359;SDS011;66426;51.454;7.266;2023-04-29T00:46:53;26.35;;;11.20;;
77359;SDS011;66426;51.454;7.266;2023-04-29T00:47:54;23.35;;;11.13;;
77359;SDS011;66426;51.454;7.266;2023-04-29T00:48:55;23.17;;;11.48;;
77359;SDS011;66426;51.454;7.266;2023-04-29T00:49:56;22.05;;;11.57;;
77359;SDS011;66426;51.454;7.266;2023-04-29T00:50:57;25.63;;;12.07;;
77359;SDS011;66426;51.454;7.266;2023-04-29T00:51:58;23.17;;;11.25;;
77359;SDS011;66426;51.454;7.266;2023-04-29T00:53:01;23.88;;;11.70;;
77359;SDS011;66426;51.454;7.266;2023-04-29T00:54:03;25.92;;;13.27;;
77359;SDS011;66426;51.454;7.266;2023-04-29T00:55:05;24.77;;;12.27;;
77359;SDS011;66426;51.454;7.266;2023-04-29T00:56:08;23.25;;;11.57;;
77359;SDS011;66426;51.454;7.266;2023-04-29T00:57:09;24.88;;;11.73;;
77359;SDS011;66426;51.454;7.266;2023-04-29T00:58:10;25.25;;;11.82;;
77359;SDS011;66426;51.454;7.266;2023-04-29T00:59:12;24.55;;;10.93;;
77359;SDS011;66426;51.454;7.266;2023-04-29T01:00:16;27.90;;;12.80;;
77359;SDS011;66426;51.454;7.266;2023-04-29T01:01:18;25.30;;;11.82;;
77359;SDS011;66426;51.454;7.266;2023-04-29T01:02:19;27.00;;;12.35;;
77359;SDS011;66426;51.454;7.266;2023-04-29T01:03:21;27.80;;;12.70;;
77359;SDS011;66426;51.454;7.266;2023-04-29T01:04:22;24.25;;;11.65;;
77359;SDS011;66426;51.454;7.266;2023-04-29T01:05:23;25.52;;;12.18;;
77359;SDS011;66426;51.454;7.266;2023-04-29T01:06:26;27.77;;;12.63;;
77359;SDS011;66426;51.454;7.266;2023-04-29T01:07:36;26.75;;;12.18;;
77359;SDS011;66426;51.454;7.266;2023-04-29T01:08:47;26.15;;;12.60;;
77359;SDS011;66426;51.454;7.266;2023-04-29T01:10:02;29.55;;;13.35;;
77359;SDS011;66426;51.454;7.266;2023-04-29T01:11:07;27.88;;;13.20;;
77359;SDS011;66426;51.454;7.266;2023-04-29T01:12:12;30.90;;;13.15;;
77359;SDS011;66426;51.454;7.266;2023-04-29T01:13:20;28.42;;;12.93;;
77359;SDS011;66426;51.454;7.266;2023-04-29T01:14:28;29.17;;;12.90;;
77359;SDS011;66426;51.454;7.266;2023-04-29T01:15:37;31.80;;;13.90;;
77359;SDS011;66426;51.454;7.266;2023-04-29T01:16:43;30.17;;;13.73;;
77359;SDS011;66426;51.454;7.266;2023-04-29T01:17:49;31.40;;;14.27;;
77359;SDS011;66426;51.454;7.266;2023-04-29T01:18:56;32.13;;;14.52;;
77359;SDS011;66426;51.454;7.266;2023-04-29T01:19:58;32.22;;;13.82;;
77359;SDS011;66426;51.454;7.266;2023-04-29T01:21:01;32.90;;;14.60;;
77359;SDS011;66426;51.454;7.266;2023-04-29T01:22:02;32.67;;;14.68;;
77359;SDS011;66426;51.454;7.266;2023-04-29T01:23:03;32.72;;;14.52;;
77359;SDS011;66426;51.454;7.266;2023-04-29T01:24:05;29.92;;;13.75;;
77359;SDS011;66426;51.454;7.266;2023-04-29T01:25:07;34.55;;;14.98;;
77359;SDS011;66426;51.454;7.266;2023-04-29T01:26:09;32.63;;;14.85;;
77359;SDS011;66426;51.454;7.266;2023-04-29T01:27:12;34.63;;;14.43;;
77359;SDS011;66426;51.454;7.266;2023-04-29T01:28:20;34.92;;;15.18;;
77359;SDS011;66426;51.454;7.266;2023-04-29T01:29:31;33.45;;;14.25;;
77359;SDS011;66426;51.454;7.266;2023-04-29T01:30:41;35.35;;;14.77;;
77359;SDS011;66426;51.454;7.266;2023-04-29T01:31:50;35.08;;;13.50;;
77359;SDS011;66426;51.454;7.266;2023-04-29T01:32:59;35.25;;;14.68;;
77359;SDS011;66426;51.454;7.266;2023-04-29T01:34:07;33.15;;;14.85;;
77359;SDS011;66426;51.454;7.266;2023-04-29T01:35:11;38.22;;;15.45;;
77359;SDS011;66426;51.454;7.266;2023-04-29T01:36:29;36.28;;;14.90;;
77359;SDS011;66426;51.454;7.266;2023-04-29T01:37:47;38.33;;;15.65;;
77359;SDS011;66426;51.454;7.266;2023-04-29T01:38:52;39.10;;;16.25;;
77359;SDS011;66426;51.454;7.266;2023-04-29T01:40:03;36.33;;;14.60;;
77359;SDS011;66426;51.454;7.266;2023-04-29T01:42:17;35.15;;;14.45;;
77359;SDS011;66426;51.454;7.266;2023-04-29T01:43:25;45.28;;;16.63;;
77359;SDS011;66426;51.454;7.266;2023-04-29T01:44:29;47.72;;;17.27;;
77359;SDS011;66426;51.454;7.266;2023-04-29T01:45:33;44.00;;;17.35;;
77359;SDS011;66426;51.454;7.266;2023-04-29T01:46:35;41.42;;;17.15;;
77359;SDS011;66426;51.454;7.266;2023-04-29T01:47:37;40.30;;;17.23;;
77359;SDS011;66426;51.454;7.266;2023-04-29T01:48:38;42.20;;;17.70;;
77359;SDS011;66426;51.454;7.266;2023-04-29T01:49:40;43.47;;;18.88;;
77359;SDS011;66426;51.454;7.266;2023-04-29T01:50:40;41.75;;;16.88;;
77359;SDS011;66426;51.454;7.266;2023-04-29T01:51:41;40.15;;;17.63;;
77359;SDS011;66426;51.454;7.266;2023-04-29T01:52:42;43.05;;;18.08;;
77359;SDS011;66426;51.454;7.266;2023-04-29T01:53:43;44.80;;;17.58;;
77359;SDS011;66426;51.454;7.266;2023-04-29T01:54:44;42.35;;;17.35;;
77359;SDS011;66426;51.454;7.266;2023-04-29T01:55:47;42.75;;;17.65;;
77359;SDS011;66426;51.454;7.266;2023-04-29T01:56:48;47.30;;;19.73;;
77359;SDS011;66426;51.454;7.266;2023-04-29T01:57:50;42.83;;;18.42;;
77359;SDS011;66426;51.454;7.266;2023-04-29T01:58:51;49.25;;;18.00;;
77359;SDS011;66426;51.454;7.266;2023-04-29T01:59:52;46.53;;;19.40;;
77359;SDS011;66426;51.454;7.266;2023-04-29T02:00:53;42.97;;;17.73;;
77359;SDS011;66426;51.454;7.266;2023-04-29T02:01:54;46.08;;;17.95;;
77359;SDS011;66426;51.454;7.266;2023-04-29T02:02:58;51.75;;;20.00;;
77359;SDS011;66426;51.454;7.266;2023-04-29T02:03:59;46.08;;;17.92;;
77359;SDS011;66426;51.454;7.266;2023-04-29T02:04:59;51.50;;;20.23;;
77359;SDS011;66426;51.454;7.266;2023-04-29T02:06:00;49.20;;;19.15;;
77359;SDS011;66426;51.454;7.266;2023-04-29T02:07:01;45.38;;;17.55;;
77359;SDS011;66426;51.454;7.266;2023-04-29T02:08:03;45.90;;;19.40;;
77359;SDS011;66426;51.454;7.266;2023-04-29T02:09:06;47.55;;;18.48;;
77359;SDS011;66426;51.454;7.266;2023-04-29T02:10:08;51.50;;;18.40;;
77359;SDS011;66426;51.454;7.266;2023-04-29T02:11:10;50.13;;;18.45;;
77359;SDS011;66426;51.454;7.266;2023-04-29T02:12:11;46.35;;;19.60;;
77359;SDS011;66426;51.454;7.266;2023-04-29T02:13:12;51.85;;;20.30;;
77359;SDS011;66426;51.454;7.266;2023-04-29T02:14:13;48.67;;;19.25;;
77359;SDS011;66426;51.454;7.266;2023-04-29T02:15:14;49.90;;;18.85;;
77359;SDS011;66426;51.454;7.266;2023-04-29T02:16:15;50.80;;;19.08;;
77359;SDS011;66426;51.454;7.266;2023-04-29T02:17:16;46.25;;;17.88;;
77359;SDS011;66426;51.454;7.266;2023-04-29T02:18:17;46.22;;;18.58;;
77359;SDS011;66426;51.454;7.266;2023-04-29T02:19:17;44.20;;;17.65;;
77359;SDS011;66426;51.454;7.266;2023-04-29T02:20:18;49.65;;;18.42;;
77359;SDS011;66426;51.454;7.266;2023-04-29T02:21:19;46.88;;;19.10;;
77359;SDS011;66426;51.454;7.266;2023-04-29T02:22:20;51.50;;;18.23;;
77359;SDS011;66426;51.454;7.266;2023-04-29T02:23:21;46.30;;;18.00;;
77359;SDS011;66426;51.454;7.266;2023-04-29T02:24:22;50.45;;;20.50;;
77359;SDS011;66426;51.454;7.266;2023-04-29T02:25:23;54.50;;;19.30;;
77359;SDS011;66426;51.454;7.266;2023-04-29T02:26:25;56.33;;;20.13;;
77359;SDS011;66426;51.454;7.266;2023-04-29T02:27:26;56.95;;;20.42;;
77359;SDS011;66426;51.454;7.266;2023-04-29T02:28:27;52.53;;;18.70;;
77359;SDS011;66426;51.454;7.266;2023-04-29T02:29:28;54.70;;;19.08;;
77359;SDS011;66426;51.454;7.266;2023-04-29T02:30:30;54.72;;;18.92;;
77359;SDS011;66426;51.454;7.266;2023-04-29T02:31:31;49.65;;;18.60;;
77359;SDS011;66426;51.454;7.266;2023-04-29T02:32:32;55.95;;;18.30;;
77359;SDS011;66426;51.454;7.266;2023-04-29T02:33:33;54.22;;;19.10;;
77359;SDS011;66426;51.454;7.266;2023-04-29T02:34:34;52.88;;;20.45;;
77359;SDS011;66426;51.454;7.266;2023-04-29T02:35:35;56.75;;;19.27;;
77359;SDS011;66426;51.454;7.266;2023-04-29T02:36:36;49.92;;;17.42;;
77359;SDS011;66426;51.454;7.266;2023-04-29T02:37:36;52.33;;;18.17;;
77359;SDS011;66426;51.454;7.266;2023-04-29T02:38:37;52.90;;;19.55;;
77359;SDS011;66426;51.454;7.266;2023-04-29T02:39:38;50.60;;;17.65;;
77359;SDS011;66426;51.454;7.266;2023-04-29T02:40:40;50.35;;;17.80;;
77359;SDS011;66426;51.454;7.266;2023-04-29T02:41:43;45.13;;;18.10;;
77359;SDS011;66426;51.454;7.266;2023-04-29T02:42:44;51.08;;;19.80;;
77359;SDS011;66426;51.454;7.266;2023-04-29T02:43:45;49.05;;;19.00;;
77359;SDS011;66426;51.454;7.266;2023-04-29T02:44:48;48.00;;;18.33;;
77359;SDS011;66426;51.454;7.266;2023-04-29T02:45:49;44.38;;;16.75;;
77359;SDS011;66426;51.454;7.266;2023-04-29T02:46:50;45.53;;;17.60;;
77359;SDS011;66426;51.454;7.266;2023-04-29T02:47:51;42.17;;;16.45;;
77359;SDS011;66426;51.454;7.266;2023-04-29T02:48:51;43.13;;;16.67;;
77359;SDS011;66426;51.454;7.266;2023-04-29T02:49:52;42.30;;;15.10;;
77359;SDS011;66426;51.454;7.266;2023-04-29T02:50:53;40.38;;;15.43;;
77359;SDS011;66426;51.454;7.266;2023-04-29T02:51:54;45.08;;;17.35;;
77359;SDS011;66426;51.454;7.266;2023-04-29T02:52:55;42.83;;;16.77;;
77359;SDS011;66426;51.454;7.266;2023-04-29T02:53:57;44.35;;;17.63;;
77359;SDS011;66426;51.454;7.266;2023-04-29T02:54:58;39.65;;;15.48;;
77359;SDS011;66426;51.454;7.266;2023-04-29T02:55:58;39.50;;;15.73;;
77359;SDS011;66426;51.454;7.266;2023-04-29T02:57:01;45.92;;;18.35;;
77359;SDS011;66426;51.454;7.266;2023-04-29T02:58:02;41.92;;;16.85;;
77359;SDS011;66426;51.454;7.266;2023-04-29T02:59:03;41.75;;;16.25;;
77359;SDS011;66426;51.454;7.266;2023-04-29T03:00:04;39.72;;;15.23;;
77359;SDS011;66426;51.454;7.266;2023-04-29T03:01:06;42.75;;;16.30;;
77359;SDS011;66426;51.454;7.266;2023-04-29T03:02:07;40.70;;;16.10;;
77359;SDS011;66426;51.454;7.266;2023-04-29T03:03:08;44.20;;;17.10;;
77359;SDS011;66426;51.454;7.266;2023-04-29T03:04:09;41.15;;;16.40;;
77359;SDS011;66426;51.454;7.266;2023-04-29T03:05:10;41.83;;;16.67;;
77359;SDS011;66426;51.454;7.266;2023-04-29T03:06:11;39.55;;;15.63;;
77359;SDS011;66426;51.454;7.266;2023-04-29T03:07:12;43.58;;;16.95;;
77359;SDS011;66426;51.454;7.266;2023-04-29T03:08:13;38.85;;;14.48;;
77359;SDS011;66426;51.454;7.266;2023-04-29T03:09:13;43.20;;;17.25;;
77359;SDS011;66426;51.454;7.266;2023-04-29T03:10:14;42.58;;;16.88;;
77359;SDS011;66426;51.454;7.266;2023-04-29T03:11:15;38.67;;;16.10;;
77359;SDS011;66426;51.454;7.266;2023-04-29T03:12:17;41.75;;;16.15;;
77359;SDS011;66426;51.454;7.266;2023-04-29T03:13:18;42.42;;;17.02;;
77359;SDS011;66426;51.454;7.266;2023-04-29T03:14:20;36.63;;;15.05;;
77359;SDS011;66426;51.454;7.266;2023-04-29T03:15:21;44.20;;;16.45;;
77359;SDS011;66426;51.454;7.266;2023-04-29T03:16:22;41.42;;;16.42;;
77359;SDS011;66426;51.454;7.266;2023-04-29T03:17:23;42.53;;;15.88;;
77359;SDS011;66426;51.454;7.266;2023-04-29T03:18:24;41.10;;;16.05;;
77359;SDS011;66426;51.454;7.266;2023-04-29T03:19:25;38.47;;;14.85;;
77359;SDS011;66426;51.454;7.266;2023-04-29T03:20:26;32.58;;;13.52;;
77359;SDS011;66426;51.454;7.266;2023-04-29T03:21:27;40.20;;;15.15;;
77359;SDS011;66426;51.454;7.266;2023-04-29T03:22:29;33.30;;;14.13;;
77359;SDS011;66426;51.454;7.266;2023-04-29T03:23:30;34.55;;;14.05;;
77359;SDS011;66426;51.454;7.266;2023-04-29T03:24:31;31.15;;;12.60;;
77359;SDS011;66426;51.454;7.266;2023-04-29T03:25:32;30.88;;;12.70;;
77359;SDS011;66426;51.454;7.266;2023-04-29T03:26:32;29.90;;;11.90;;
77359;SDS011;66426;51.454;7.266;2023-04-29T03:27:35;29.33;;;11.85;;
77359;SDS011;66426;51.454;7.266;2023-04-29T03:28:36;26.45;;;12.18;;
77359;SDS011;66426;51.454;7.266;2023-04-29T03:29:36;26.83;;;12.30;;
77359;SDS011;66426;51.454;7.266;2023-04-29T03:30:37;29.52;;;12.10;;
77359;SDS011;66426;51.454;7.266;2023-04-29T03:31:38;27.48;;;11.70;;
77359;SDS011;66426;51.454;7.266;2023-04-29T03:32:39;29.67;;;11.95;;
77359;SDS011;66426;51.454;7.266;2023-04-29T03:33:40;32.15;;;12.48;;
77359;SDS011;66426;51.454;7.266;2023-04-29T03:34:41;29.23;;;12.60;;
77359;SDS011;66426;51.454;7.266;2023-04-29T03:35:42;29.08;;;11.98;;
77359;SDS011;66426;51.454;7.266;2023-04-29T03:36:44;28.33;;;11.23;;
77359;SDS011;66426;51.454;7.266;2023-04-29T03:37:45;24.63;;;11.60;;
77359;SDS011;66426;51.454;7.266;2023-04-29T03:38:46;27.52;;;12.55;;
77359;SDS011;66426;51.454;7.266;2023-04-29T03:39:47;28.15;;;11.60;;
77359;SDS011;66426;51.454;7.266;2023-04-29T03:40:47;29.48;;;12.75;;
77359;SDS011;66426;51.454;7.266;2023-04-29T03:41:48;26.60;;;11.52;;
77359;SDS011;66426;51.454;7.266;2023-04-29T03:42:51;26.38;;;10.82;;
77359;SDS011;66426;51.454;7.266;2023-04-29T03:43:52;25.85;;;11.43;;
77359;SDS011;66426;51.454;7.266;2023-04-29T03:44:54;28.60;;;12.48;;
77359;SDS011;66426;51.454;7.266;2023-04-29T03:45:55;33.13;;;12.88;;
77359;SDS011;66426;51.454;7.266;2023-04-29T03:46:56;29.27;;;11.68;;
77359;SDS011;66426;51.454;7.266;2023-04-29T03:47:56;27.17;;;12.20;;
77359;SDS011;66426;51.454;7.266;2023-04-29T03:48:57;29.00;;;13.40;;
77359;SDS011;66426;51.454;7.266;2023-04-29T03:49:58;28.63;;;11.85;;
77359;SDS011;66426;51.454;7.266;2023-04-29T03:50:59;29.00;;;12.35;;
77359;SDS011;66426;51.454;7.266;2023-04-29T03:52:00;31.10;;;12.15;;
77359;SDS011;66426;51.454;7.266;2023-04-29T03:53:01;29.70;;;12.63;;
77359;SDS011;66426;51.454;7.266;2023-04-29T03:54:02;29.15;;;11.90;;
77359;SDS011;66426;51.454;7.266;2023-04-29T03:55:03;34.78;;;13.45;;
77359;SDS011;66426;51.454;7.266;2023-04-29T03:56:05;31.48;;;12.88;;
77359;SDS011;66426;51.454;7.266;2023-04-29T03:57:06;29.33;;;13.52;;
77359;SDS011;66426;51.454;7.266;2023-04-29T03:58:08;29.75;;;12.93;;
77359;SDS011;66426;51.454;7.266;2023-04-29T03:59:10;25.10;;;11.27;;
77359;SDS011;66426;51.454;7.266;2023-04-29T04:00:11;31.67;;;12.55;;
77359;SDS011;66426;51.454;7.266;2023-04-29T04:01:13;30.42;;;13.07;;
77359;SDS011;66426;51.454;7.266;2023-04-29T04:02:14;25.63;;;11.38;;
77359;SDS011;66426;51.454;7.266;2023-04-29T04:03:15;29.50;;;13.13;;
77359;SDS011;66426;51.454;7.266;2023-04-29T04:04:16;26.23;;;12.35;;
77359;SDS011;66426;51.454;7.266;2023-04-29T04:05:17;25.92;;;11.55;;
77359;SDS011;66426;51.454;7.266;2023-04-29T04:06:24;25.50;;;12.20;;
77359;SDS011;66426;51.454;7.266;2023-04-29T04:07:25;25.40;;;10.65;;
77359;SDS011;66426;51.454;7.266;2023-04-29T04:08:26;27.58;;;12.43;;
77359;SDS011;66426;51.454;7.266;2023-04-29T04:09:27;25.35;;;11.48;;
77359;SDS011;66426;51.454;7.266;2023-04-29T04:10:28;25.33;;;11.27;;
77359;SDS011;66426;51.454;7.266;2023-04-29T04:11:29;27.25;;;11.50;;
77359;SDS011;66426;51.454;7.266;2023-04-29T04:12:30;24.40;;;11.30;;
77359;SDS011;66426;51.454;7.266;2023-04-29T04:13:32;23.88;;;11.13;;
77359;SDS011;66426;51.454;7.266;2023-04-29T04:14:33;24.85;;;11.77;;
77359;SDS011;66426;51.454;7.266;2023-04-29T04:15:34;28.98;;;11.93;;
77359;SDS011;66426;51.454;7.266;2023-04-29T04:16:35;25.85;;;11.25;;
77359;SDS011;66426;51.454;7.266;2023-04-29T04:17:36;23.83;;;10.73;;
77359;SDS011;66426;51.454;7.266;2023-04-29T04:18:37;25.52;;;11.77;;
77359;SDS011;66426;51.454;7.266;2023-04-29T04:19:38;21.80;;;10.65;;
77359;SDS011;66426;51.454;7.266;2023-04-29T04:20:39;24.15;;;11.10;;
77359;SDS011;66426;51.454;7.266;2023-04-29T04:21:40;25.90;;;11.68;;
77359;SDS011;66426;51.454;7.266;2023-04-29T04:22:41;26.75;;;11.23;;
77359;SDS011;66426;51.454;7.266;2023-04-29T04:23:42;21.25;;;10.35;;
77359;SDS011;66426;51.454;7.266;2023-04-29T04:24:43;24.73;;;11.25;;
77359;SDS011;66426;51.454;7.266;2023-04-29T04:25:44;23.92;;;11.43;;
77359;SDS011;66426;51.454;7.266;2023-04-29T04:26:46;24.73;;;11.20;;
77359;SDS011;66426;51.454;7.266;2023-04-29T04:27:47;22.90;;;10.45;;
77359;SDS011;66426;51.454;7.266;2023-04-29T04:28:49;25.02;;;11.23;;
77359;SDS011;66426;51.454;7.266;2023-04-29T04:29:52;23.98;;;10.75;;
77359;SDS011;66426;51.454;7.266;2023-04-29T04:30:53;25.08;;;11.55;;
77359;SDS011;66426;51.454;7.266;2023-04-29T04:31:54;24.10;;;11.55;;
77359;SDS011;66426;51.454;7.266;2023-04-29T04:32:55;21.58;;;9.93;;
77359;SDS011;66426;51.454;7.266;2023-04-29T04:33:55;22.55;;;10.80;;
77359;SDS011;66426;51.454;7.266;2023-04-29T04:34:59;21.80;;;10.57;;
77359;SDS011;66426;51.454;7.266;2023-04-29T04:35:59;23.00;;;10.63;;
77359;SDS011;66426;51.454;7.266;2023-04-29T04:37:00;20.42;;;9.90;;
77359;SDS011;66426;51.454;7.266;2023-04-29T04:38:02;25.92;;;10.13;;
77359;SDS011;66426;51.454;7.266;2023-04-29T04:39:02;25.42;;;10.90;;
77359;SDS011;66426;51.454;7.266;2023-04-29T04:40:04;21.80;;;10.63;;
77359;SDS011;66426;51.454;7.266;2023-04-29T04:41:05;27.27;;;10.93;;
77359;SDS011;66426;51.454;7.266;2023-04-29T04:42:09;24.05;;;9.77;;
77359;SDS011;66426;51.454;7.266;2023-04-29T04:43:10;22.75;;;10.48;;
77359;SDS011;66426;51.454;7.266;2023-04-29T04:44:12;22.08;;;10.40;;
77359;SDS011;66426;51.454;7.266;2023-04-29T04:45:13;24.65;;;9.77;;
77359;SDS011;66426;51.454;7.266;2023-04-29T04:46:14;22.38;;;11.15;;
77359;SDS011;66426;51.454;7.266;2023-04-29T04:47:16;20.65;;;9.70;;
77359;SDS011;66426;51.454;7.266;2023-04-29T04:48:17;24.08;;;10.75;;
77359;SDS011;66426;51.454;7.266;2023-04-29T04:49:18;22.55;;;10.00;;
77359;SDS011;66426;51.454;7.266;2023-04-29T04:50:19;22.55;;;10.85;;
77359;SDS011;66426;51.454;7.266;2023-04-29T04:51:20;24.65;;;11.25;;
77359;SDS011;66426;51.454;7.266;2023-04-29T04:52:21;20.58;;;9.60;;
77359;SDS011;66426;51.454;7.266;2023-04-29T04:53:22;21.77;;;10.32;;
77359;SDS011;66426;51.454;7.266;2023-04-29T04:54:23;19.77;;;10.07;;
77359;SDS011;66426;51.454;7.266;2023-04-29T04:55:24;20.70;;;10.32;;
77359;SDS011;66426;51.454;7.266;2023-04-29T04:56:25;19.15;;;9.82;;
77359;SDS011;66426;51.454;7.266;2023-04-29T04:57:26;20.38;;;9.75;;
77359;SDS011;66426;51.454;7.266;2023-04-29T04:58:27;24.60;;;11.38;;
77359;SDS011;66426;51.454;7.266;2023-04-29T04:59:29;23.92;;;10.43;;
77359;SDS011;66426;51.454;7.266;2023-04-29T05:00:30;23.60;;;10.50;;
77359;SDS011;66426;51.454;7.266;2023-04-29T05:01:31;22.10;;;11.07;;
77359;SDS011;66426;51.454;7.266;2023-04-29T05:02:32;23.63;;;10.63;;
77359;SDS011;66426;51.454;7.266;2023-04-29T05:03:33;23.85;;;10.82;;
77359;SDS011;66426;51.454;7.266;2023-04-29T05:04:33;19.92;;;10.30;;
77359;SDS011;66426;51.454;7.266;2023-04-29T05:05:34;21.80;;;10.43;;
77359;SDS011;66426;51.454;7.266;2023-04-29T05:06:35;20.40;;;10.15;;
77359;SDS011;66426;51.454;7.266;2023-04-29T05:07:37;20.05;;;9.95;;
77359;SDS011;66426;51.454;7.266;2023-04-29T05:08:37;23.40;;;10.95;;
77359;SDS011;66426;51.454;7.266;2023-04-29T05:09:38;22.05;;;11.27;;
77359;SDS011;66426;51.454;7.266;2023-04-29T05:10:39;22.85;;;10.93;;
77359;SDS011;66426;51.454;7.266;2023-04-29T05:11:40;23.85;;;11.02;;
77359;SDS011;66426;51.454;7.266;2023-04-29T05:12:41;21.48;;;11.10;;
77359;SDS011;66426;51.454;7.266;2023-04-29T05:13:42;22.20;;;10.55;;
77359;SDS011;66426;51.454;7.266;2023-04-29T05:14:45;23.08;;;11.05;;
77359;SDS011;66426;51.454;7.266;2023-04-29T05:15:46;19.00;;;9.65;;
77359;SDS011;66426;51.454;7.266;2023-04-29T05:16:47;21.30;;;10.82;;
77359;SDS011;66426;51.454;7.266;2023-04-29T05:17:48;20.38;;;10.07;;
77359;SDS011;66426;51.454;7.266;2023-04-29T05:18:49;19.48;;;10.23;;
77359;SDS011;66426;51.454;7.266;2023-04-29T05:19:49;20.50;;;11.32;;
77359;SDS011;66426;51.454;7.266;2023-04-29T05:20:50;23.23;;;11.10;;
77359;SDS011;66426;51.454;7.266;2023-04-29T05:21:51;23.77;;;10.75;;
77359;SDS011;66426;51.454;7.266;2023-04-29T05:22:52;21.33;;;10.82;;
77359;SDS011;66426;51.454;7.266;2023-04-29T05:23:53;25.75;;;11.27;;
77359;SDS011;66426;51.454;7.266;2023-04-29T05:24:54;23.02;;;10.98;;
77359;SDS011;66426;51.454;7.266;2023-04-29T05:26:01;24.23;;;11.32;;
77359;SDS011;66426;51.454;7.266;2023-04-29T05:27:02;22.95;;;11.57;;
77359;SDS011;66426;51.454;7.266;2023-04-29T05:28:04;26.80;;;12.75;;
77359;SDS011;66426;51.454;7.266;2023-04-29T05:29:05;26.23;;;11.20;;
77359;SDS011;66426;51.454;7.266;2023-04-29T05:30:07;23.30;;;10.70;;
77359;SDS011;66426;51.454;7.266;2023-04-29T05:31:09;22.85;;;11.77;;
77359;SDS011;66426;51.454;7.266;2023-04-29T05:32:10;23.42;;;10.70;;
77359;SDS011;66426;51.454;7.266;2023-04-29T05:33:12;23.65;;;11.55;;
77359;SDS011;66426;51.454;7.266;2023-04-29T05:34:13;21.17;;;11.00;;
77359;SDS011;66426;51.454;7.266;2023-04-29T05:35:14;23.63;;;11.70;;
77359;SDS011;66426;51.454;7.266;2023-04-29T05:36:15;24.30;;;11.52;;
77359;SDS011;66426;51.454;7.266;2023-04-29T05:37:16;22.92;;;10.80;;
77359;SDS011;66426;51.454;7.266;2023-04-29T05:38:17;24.00;;;11.57;;
77359;SDS011;66426;51.454;7.266;2023-04-29T05:39:18;23.88;;;11.65;;
77359;SDS011;66426;51.454;7.266;2023-04-29T05:40:19;24.65;;;11.40;;
77359;SDS011;66426;51.454;7.266;2023-04-29T05:41:20;21.98;;;11.52;;
77359;SDS011;66426;51.454;7.266;2023-04-29T05:42:23;23.48;;;10.77;;
77359;SDS011;66426;51.454;7.266;2023-04-29T05:43:25;23.90;;;11.15;;
77359;SDS011;66426;51.454;7.266;2023-04-29T05:44:27;24.27;;;11.82;;
77359;SDS011;66426;51.454;7.266;2023-04-29T05:45:29;25.25;;;11.73;;
77359;SDS011;66426;51.454;7.266;2023-04-29T05:46:30;23.50;;;11.63;;
77359;SDS011;66426;51.454;7.266;2023-04-29T05:47:30;23.45;;;11.75;;
77359;SDS011;66426;51.454;7.266;2023-04-29T05:48:31;23.38;;;12.18;;
77359;SDS011;66426;51.454;7.266;2023-04-29T05:49:32;23.58;;;11.35;;
77359;SDS011;66426;51.454;7.266;2023-04-29T05:50:33;23.17;;;11.55;;
77359;SDS011;66426;51.454;7.266;2023-04-29T05:51:34;22.60;;;11.25;;
77359;SDS011;66426;51.454;7.266;2023-04-29T05:52:35;25.50;;;11.75;;
77359;SDS011;66426;51.454;7.266;2023-04-29T05:53:36;21.48;;;11.43;;
77359;SDS011;66426;51.454;7.266;2023-04-29T05:54:38;26.65;;;11.80;;
77359;SDS011;66426;51.454;7.266;2023-04-29T05:55:39;23.15;;;12.50;;
77359;SDS011;66426;51.454;7.266;2023-04-29T05:56:40;25.75;;;12.23;;
77359;SDS011;66426;51.454;7.266;2023-04-29T05:57:41;23.40;;;11.50;;
77359;SDS011;66426;51.454;7.266;2023-04-29T05:58:42;28.90;;;11.88;;
77359;SDS011;66426;51.454;7.266;2023-04-29T05:59:42;22.60;;;12.25;;
77359;SDS011;66426;51.454;7.266;2023-04-29T06:00:45;24.98;;;12.02;;
77359;SDS011;66426;51.454;7.266;2023-04-29T06:01:46;22.02;;;11.30;;
77359;SDS011;66426;51.454;7.266;2023-04-29T06:02:46;22.38;;;12.63;;